sensor_id;sensor_type;location;lat;lon;timestamp;temperature;humidity
5508;DHT22;2776;51.046;6.772;2022-10-01T00:01:05;12.10;99.90
5508;DHT22;2776;51.046;6.772;2022-10-01T00:03:34;12.10;99.90
5508;DHT22;2776;51.046;6.772;2022-10-01T00:06:02;12.10;99.90
5508;DHT22;2776;51.046;6.772;2022-10-01T00:08:30;12.20;99.90
5508;DHT22;2776;51.046;6.772;2022-10-01T00:10:58;12.20;99.90
5508;DHT22;2776;51.046;6.772;2022-10-01T00:13:26;12.20;99.90
5508;DHT22;2776;51.046;6.772;2022-10-01T00:15:54;12.20;99.90
5508;DHT22;2776;51.046;6.772;2022-10-01T00:18:21;12.30;99.90
5508;DHT22;2776;51.046;6.772;2022-10-01T00:20:48;12.30;99.90
5508;DHT22;2776;51.046;6.772;2022-10-01T00:23:14;12.20;99.90
5508;DHT22;2776;51.046;6.772;2022-10-01T00:25:41;12.30;99.90
5508;DHT22;2776;51.046;6.772;2022-10-01T00:28:08;12.20;99.90
5508;DHT22;2776;51.046;6.772;2022-10-01T00:30:36;12.30;99.90
5508;DHT22;2776;51.046;6.772;2022-10-01T00:33:04;12.30;99.90
5508;DHT22;2776;51.046;6.772;2022-10-01T00:35:31;12.30;99.90
5508;DHT22;2776;51.046;6.772;2022-10-01T00:37:57;12.40;99.90
5508;DHT22;2776;51.046;6.772;2022-10-01T00:40:24;12.40;99.90
5508;DHT22;2776;51.046;6.772;2022-10-01T00:42:51;12.30;99.90
5508;DHT22;2776;51.046;6.772;2022-10-01T00:45:18;12.30;99.90
5508;DHT22;2776;51.046;6.772;2022-10-01T00:47:46;12.40;99.90
5508;DHT22;2776;51.046;6.772;2022-10-01T00:50:19;12.30;99.90
5508;DHT22;2776;51.046;6.772;2022-10-01T00:52:50;12.30;99.90
5508;DHT22;2776;51.046;6.772;2022-10-01T00:55:19;12.30;99.90
5508;DHT22;2776;51.046;6.772;2022-10-01T00:57:48;12.20;99.90
5508;DHT22;2776;51.046;6.772;2022-10-01T01:00:16;12.20;99.90
5508;DHT22;2776;51.046;6.772;2022-10-01T01:02:43;12.10;99.90
5508;DHT22;2776;51.046;6.772;2022-10-01T01:05:10;12.10;99.90
5508;DHT22;2776;51.046;6.772;2022-10-01T01:07:41;12.00;99.90
5508;DHT22;2776;51.046;6.772;2022-10-01T01:10:11;11.90;99.90
5508;DHT22;2776;51.046;6.772;2022-10-01T01:12:50;11.90;99.90
5508;DHT22;2776;51.046;6.772;2022-10-01T01:15:26;11.90;99.90
5508;DHT22;2776;51.046;6.772;2022-10-01T01:17:58;11.80;99.90
5508;DHT22;2776;51.046;6.772;2022-10-01T01:23:42;11.70;99.90
5508;DHT22;2776;51.046;6.772;2022-10-01T01:26:21;11.70;99.90
5508;DHT22;2776;51.046;6.772;2022-10-01T01:28:57;11.70;99.90
5508;DHT22;2776;51.046;6.772;2022-10-01T01:31:30;11.70;99.90
5508;DHT22;2776;51.046;6.772;2022-10-01T01:33:59;11.70;99.90
5508;DHT22;2776;51.046;6.772;2022-10-01T01:36:32;11.70;99.90
5508;DHT22;2776;51.046;6.772;2022-10-01T01:39:05;11.70;99.90
5508;DHT22;2776;51.046;6.772;2022-10-01T01:41:37;11.60;99.90
5508;DHT22;2776;51.046;6.772;2022-10-01T01:44:10;11.70;99.90
5508;DHT22;2776;51.046;6.772;2022-10-01T01:46:43;11.60;99.90
5508;DHT22;2776;51.046;6.772;2022-10-01T01:49:11;11.60;99.90
5508;DHT22;2776;51.046;6.772;2022-10-01T01:51:46;11.60;99.90
5508;DHT22;2776;51.046;6.772;2022-10-01T01:54:15;11.60;99.90
5508;DHT22;2776;51.046;6.772;2022-10-01T01:56:42;11.60;99.90
5508;DHT22;2776;51.046;6.772;2022-10-01T01:59:11;11.60;99.90
5508;DHT22;2776;51.046;6.772;2022-10-01T02:01:41;11.60;99.90
5508;DHT22;2776;51.046;6.772;2022-10-01T02:04:13;11.60;99.90
5508;DHT22;2776;51.046;6.772;2022-10-01T02:06:52;11.60;99.90
5508;DHT22;2776;51.046;6.772;2022-10-01T02:09:26;11.50;99.90
5508;DHT22;2776;51.046;6.772;2022-10-01T02:12:05;11.50;99.90
5508;DHT22;2776;51.046;6.772;2022-10-01T02:14:40;11.50;99.90
5508;DHT22;2776;51.046;6.772;2022-10-01T02:17:15;11.60;99.90
5508;DHT22;2776;51.046;6.772;2022-10-01T02:19:50;11.60;99.90
5508;DHT22;2776;51.046;6.772;2022-10-01T02:22:24;11.60;99.90
5508;DHT22;2776;51.046;6.772;2022-10-01T02:24:57;11.60;99.90
5508;DHT22;2776;51.046;6.772;2022-10-01T02:27:28;11.60;99.90
5508;DHT22;2776;51.046;6.772;2022-10-01T02:30:00;11.50;99.90
5508;DHT22;2776;51.046;6.772;2022-10-01T02:32:29;11.60;99.90
5508;DHT22;2776;51.046;6.772;2022-10-01T02:34:58;11.70;99.90
5508;DHT22;2776;51.046;6.772;2022-10-01T02:37:26;11.60;99.90
5508;DHT22;2776;51.046;6.772;2022-10-01T02:39:54;11.70;99.90
5508;DHT22;2776;51.046;6.772;2022-10-01T02:42:23;11.70;99.90
5508;DHT22;2776;51.046;6.772;2022-10-01T02:44:51;11.80;99.90
5508;DHT22;2776;51.046;6.772;2022-10-01T02:47:23;11.70;99.90
5508;DHT22;2776;51.046;6.772;2022-10-01T02:49:52;11.70;99.90
5508;DHT22;2776;51.046;6.772;2022-10-01T02:52:25;11.80;99.90
5508;DHT22;2776;51.046;6.772;2022-10-01T02:54:56;11.80;99.90
5508;DHT22;2776;51.046;6.772;2022-10-01T02:57:24;11.70;99.90
5508;DHT22;2776;51.046;6.772;2022-10-01T02:59:53;11.60;99.90
5508;DHT22;2776;51.046;6.772;2022-10-01T03:02:22;11.60;99.90
5508;DHT22;2776;51.046;6.772;2022-10-01T03:04:51;11.60;99.90
5508;DHT22;2776;51.046;6.772;2022-10-01T03:07:17;11.60;99.90
5508;DHT22;2776;51.046;6.772;2022-10-01T03:09:44;11.50;99.90
5508;DHT22;2776;51.046;6.772;2022-10-01T03:12:11;11.50;99.90
5508;DHT22;2776;51.046;6.772;2022-10-01T03:14:38;11.50;99.90
5508;DHT22;2776;51.046;6.772;2022-10-01T03:17:05;11.40;99.90
5508;DHT22;2776;51.046;6.772;2022-10-01T03:19:33;11.50;99.90
5508;DHT22;2776;51.046;6.772;2022-10-01T03:22:00;11.40;99.90
5508;DHT22;2776;51.046;6.772;2022-10-01T03:24:27;11.40;99.90
5508;DHT22;2776;51.046;6.772;2022-10-01T03:26:54;11.40;99.90
5508;DHT22;2776;51.046;6.772;2022-10-01T03:29:21;11.40;99.90
5508;DHT22;2776;51.046;6.772;2022-10-01T03:31:48;11.40;99.90
5508;DHT22;2776;51.046;6.772;2022-10-01T03:34:15;11.50;99.90
5508;DHT22;2776;51.046;6.772;2022-10-01T03:36:43;11.50;99.90
5508;DHT22;2776;51.046;6.772;2022-10-01T03:39:11;11.40;99.90
5508;DHT22;2776;51.046;6.772;2022-10-01T03:41:38;11.50;99.90
5508;DHT22;2776;51.046;6.772;2022-10-01T03:44:05;11.40;99.90
5508;DHT22;2776;51.046;6.772;2022-10-01T03:46:32;11.50;99.90
5508;DHT22;2776;51.046;6.772;2022-10-01T03:48:59;11.50;99.90
5508;DHT22;2776;51.046;6.772;2022-10-01T03:51:25;11.50;99.90
5508;DHT22;2776;51.046;6.772;2022-10-01T03:53:54;11.50;99.90
5508;DHT22;2776;51.046;6.772;2022-10-01T03:56:21;11.50;99.90
5508;DHT22;2776;51.046;6.772;2022-10-01T03:58:47;11.50;99.90
5508;DHT22;2776;51.046;6.772;2022-10-01T04:01:14;11.50;99.90
5508;DHT22;2776;51.046;6.772;2022-10-01T04:03:42;11.50;99.90
5508;DHT22;2776;51.046;6.772;2022-10-01T04:06:09;11.40;99.90
5508;DHT22;2776;51.046;6.772;2022-10-01T04:08:35;11.50;99.90
5508;DHT22;2776;51.046;6.772;2022-10-01T04:11:05;11.50;99.90
5508;DHT22;2776;51.046;6.772;2022-10-01T04:13:32;11.40;99.90
5508;DHT22;2776;51.046;6.772;2022-10-01T04:15:59;11.50;99.90
5508;DHT22;2776;51.046;6.772;2022-10-01T04:18:26;11.50;99.90
5508;DHT22;2776;51.046;6.772;2022-10-01T04:20:53;11.60;99.90
5508;DHT22;2776;51.046;6.772;2022-10-01T04:23:19;11.60;99.90
5508;DHT22;2776;51.046;6.772;2022-10-01T04:25:47;11.60;99.90
5508;DHT22;2776;51.046;6.772;2022-10-01T04:28:15;11.70;99.90
5508;DHT22;2776;51.046;6.772;2022-10-01T04:30:43;11.80;99.90
5508;DHT22;2776;51.046;6.772;2022-10-01T04:33:12;11.90;99.90
5508;DHT22;2776;51.046;6.772;2022-10-01T04:35:39;11.90;99.90
5508;DHT22;2776;51.046;6.772;2022-10-01T04:38:11;12.00;99.90
5508;DHT22;2776;51.046;6.772;2022-10-01T04:40:38;12.10;99.90
5508;DHT22;2776;51.046;6.772;2022-10-01T04:43:06;12.10;99.90
5508;DHT22;2776;51.046;6.772;2022-10-01T04:45:35;12.10;99.90
5508;DHT22;2776;51.046;6.772;2022-10-01T04:48:03;12.20;99.90
5508;DHT22;2776;51.046;6.772;2022-10-01T04:50:31;12.20;99.90
5508;DHT22;2776;51.046;6.772;2022-10-01T04:52:58;12.30;99.90
5508;DHT22;2776;51.046;6.772;2022-10-01T04:55:25;12.30;99.90
5508;DHT22;2776;51.046;6.772;2022-10-01T04:57:52;12.40;99.90
5508;DHT22;2776;51.046;6.772;2022-10-01T05:00:20;12.40;99.90
5508;DHT22;2776;51.046;6.772;2022-10-01T05:02:51;12.50;99.90
5508;DHT22;2776;51.046;6.772;2022-10-01T05:05:19;12.50;99.90
5508;DHT22;2776;51.046;6.772;2022-10-01T05:07:47;12.50;99.90
5508;DHT22;2776;51.046;6.772;2022-10-01T05:10:15;12.50;99.90
5508;DHT22;2776;51.046;6.772;2022-10-01T05:12:43;12.50;99.90
5508;DHT22;2776;51.046;6.772;2022-10-01T05:15:10;12.50;99.90
5508;DHT22;2776;51.046;6.772;2022-10-01T05:17:37;12.50;99.90
5508;DHT22;2776;51.046;6.772;2022-10-01T05:20:09;12.50;99.90
5508;DHT22;2776;51.046;6.772;2022-10-01T05:22:36;12.40;99.90
5508;DHT22;2776;51.046;6.772;2022-10-01T05:25:03;12.40;99.90
5508;DHT22;2776;51.046;6.772;2022-10-01T05:27:31;12.40;99.90
5508;DHT22;2776;51.046;6.772;2022-10-01T05:30:00;12.40;99.90
5508;DHT22;2776;51.046;6.772;2022-10-01T05:32:27;12.30;99.90
5508;DHT22;2776;51.046;6.772;2022-10-01T05:34:54;12.30;99.90
5508;DHT22;2776;51.046;6.772;2022-10-01T05:37:22;12.30;99.90
5508;DHT22;2776;51.046;6.772;2022-10-01T05:39:49;12.30;99.90
5508;DHT22;2776;51.046;6.772;2022-10-01T05:42:16;12.40;99.90
5508;DHT22;2776;51.046;6.772;2022-10-01T05:44:42;12.40;99.90
5508;DHT22;2776;51.046;6.772;2022-10-01T05:47:11;12.40;99.90
5508;DHT22;2776;51.046;6.772;2022-10-01T05:49:39;12.40;99.90
5508;DHT22;2776;51.046;6.772;2022-10-01T05:52:07;12.40;99.90
5508;DHT22;2776;51.046;6.772;2022-10-01T05:54:35;12.40;99.90
5508;DHT22;2776;51.046;6.772;2022-10-01T05:57:02;12.50;99.90
5508;DHT22;2776;51.046;6.772;2022-10-01T05:59:29;12.40;99.90
5508;DHT22;2776;51.046;6.772;2022-10-01T06:01:56;12.50;99.90
5508;DHT22;2776;51.046;6.772;2022-10-01T06:04:23;12.50;99.90
5508;DHT22;2776;51.046;6.772;2022-10-01T06:06:49;12.50;99.90
5508;DHT22;2776;51.046;6.772;2022-10-01T06:09:16;12.60;99.90
5508;DHT22;2776;51.046;6.772;2022-10-01T06:11:44;12.60;99.90
5508;DHT22;2776;51.046;6.772;2022-10-01T06:14:13;12.60;99.90
5508;DHT22;2776;51.046;6.772;2022-10-01T06:16:40;12.70;99.90
5508;DHT22;2776;51.046;6.772;2022-10-01T06:19:07;12.70;99.90
5508;DHT22;2776;51.046;6.772;2022-10-01T06:21:33;12.80;99.90
5508;DHT22;2776;51.046;6.772;2022-10-01T06:24:00;12.90;99.90
5508;DHT22;2776;51.046;6.772;2022-10-01T06:26:27;12.90;99.90
5508;DHT22;2776;51.046;6.772;2022-10-01T06:28:55;13.00;99.90
5508;DHT22;2776;51.046;6.772;2022-10-01T06:31:22;13.10;99.90
5508;DHT22;2776;51.046;6.772;2022-10-01T06:33:49;13.10;99.90
5508;DHT22;2776;51.046;6.772;2022-10-01T06:36:16;13.20;99.90
5508;DHT22;2776;51.046;6.772;2022-10-01T06:38:42;13.30;99.90
5508;DHT22;2776;51.046;6.772;2022-10-01T06:41:09;13.30;99.90
5508;DHT22;2776;51.046;6.772;2022-10-01T06:43:36;13.40;99.90
5508;DHT22;2776;51.046;6.772;2022-10-01T06:46:04;13.40;99.90
5508;DHT22;2776;51.046;6.772;2022-10-01T06:48:32;13.40;99.90
5508;DHT22;2776;51.046;6.772;2022-10-01T06:51:00;13.50;99.90
5508;DHT22;2776;51.046;6.772;2022-10-01T06:53:27;13.60;99.90
5508;DHT22;2776;51.046;6.772;2022-10-01T06:55:54;13.60;99.90
5508;DHT22;2776;51.046;6.772;2022-10-01T06:58:22;13.60;99.90
5508;DHT22;2776;51.046;6.772;2022-10-01T07:00:50;13.70;99.90
5508;DHT22;2776;51.046;6.772;2022-10-01T07:03:20;13.60;99.90
5508;DHT22;2776;51.046;6.772;2022-10-01T07:05:48;13.70;99.90
5508;DHT22;2776;51.046;6.772;2022-10-01T07:08:15;13.70;99.90
5508;DHT22;2776;51.046;6.772;2022-10-01T07:10:42;13.70;99.90
5508;DHT22;2776;51.046;6.772;2022-10-01T07:13:11;13.70;99.90
5508;DHT22;2776;51.046;6.772;2022-10-01T07:15:38;13.80;99.90
5508;DHT22;2776;51.046;6.772;2022-10-01T07:18:05;13.80;99.90
5508;DHT22;2776;51.046;6.772;2022-10-01T07:20:35;13.90;99.90
5508;DHT22;2776;51.046;6.772;2022-10-01T07:23:05;13.90;99.90
5508;DHT22;2776;51.046;6.772;2022-10-01T07:25:32;13.90;99.90
5508;DHT22;2776;51.046;6.772;2022-10-01T07:28:01;14.00;99.90
5508;DHT22;2776;51.046;6.772;2022-10-01T07:30:30;14.10;99.90
5508;DHT22;2776;51.046;6.772;2022-10-01T07:32:57;14.10;99.90
5508;DHT22;2776;51.046;6.772;2022-10-01T07:35:24;14.20;99.90
5508;DHT22;2776;51.046;6.772;2022-10-01T07:37:52;14.20;99.90
5508;DHT22;2776;51.046;6.772;2022-10-01T07:40:19;14.20;99.90
5508;DHT22;2776;51.046;6.772;2022-10-01T07:42:51;14.20;99.90
5508;DHT22;2776;51.046;6.772;2022-10-01T07:45:18;14.20;99.90
5508;DHT22;2776;51.046;6.772;2022-10-01T07:47:51;14.20;99.90
5508;DHT22;2776;51.046;6.772;2022-10-01T07:50:18;14.30;99.90
5508;DHT22;2776;51.046;6.772;2022-10-01T07:52:49;14.40;99.90
5508;DHT22;2776;51.046;6.772;2022-10-01T07:55:17;14.40;99.90
5508;DHT22;2776;51.046;6.772;2022-10-01T07:57:49;14.50;99.90
5508;DHT22;2776;51.046;6.772;2022-10-01T08:00:16;14.60;99.90
5508;DHT22;2776;51.046;6.772;2022-10-01T08:02:46;14.70;99.90
5508;DHT22;2776;51.046;6.772;2022-10-01T08:05:13;14.70;99.90
5508;DHT22;2776;51.046;6.772;2022-10-01T08:07:42;14.80;99.90
5508;DHT22;2776;51.046;6.772;2022-10-01T08:10:09;14.80;99.90
5508;DHT22;2776;51.046;6.772;2022-10-01T08:12:37;14.80;99.90
5508;DHT22;2776;51.046;6.772;2022-10-01T08:15:07;14.80;99.90
5508;DHT22;2776;51.046;6.772;2022-10-01T08:17:35;14.70;99.90
5508;DHT22;2776;51.046;6.772;2022-10-01T08:20:02;14.70;99.90
5508;DHT22;2776;51.046;6.772;2022-10-01T08:22:29;14.60;99.90
5508;DHT22;2776;51.046;6.772;2022-10-01T08:24:56;14.70;99.90
5508;DHT22;2776;51.046;6.772;2022-10-01T08:27:23;14.70;99.90
5508;DHT22;2776;51.046;6.772;2022-10-01T08:29:52;14.60;99.90
5508;DHT22;2776;51.046;6.772;2022-10-01T08:32:19;14.60;99.90
5508;DHT22;2776;51.046;6.772;2022-10-01T08:34:46;14.70;99.90
5508;DHT22;2776;51.046;6.772;2022-10-01T08:37:14;14.90;99.90
5508;DHT22;2776;51.046;6.772;2022-10-01T08:39:41;14.90;99.90
5508;DHT22;2776;51.046;6.772;2022-10-01T08:42:18;14.90;99.90
5508;DHT22;2776;51.046;6.772;2022-10-01T08:44:48;15.00;99.90
5508;DHT22;2776;51.046;6.772;2022-10-01T08:47:21;15.10;99.90
5508;DHT22;2776;51.046;6.772;2022-10-01T08:49:56;15.30;99.90
5508;DHT22;2776;51.046;6.772;2022-10-01T08:52:27;15.40;99.90
5508;DHT22;2776;51.046;6.772;2022-10-01T08:54:57;15.50;99.90
5508;DHT22;2776;51.046;6.772;2022-10-01T08:57:28;15.60;99.90
5508;DHT22;2776;51.046;6.772;2022-10-01T08:59:57;15.60;99.90
5508;DHT22;2776;51.046;6.772;2022-10-01T09:02:29;15.60;99.90
5508;DHT22;2776;51.046;6.772;2022-10-01T09:04:58;15.70;99.90
5508;DHT22;2776;51.046;6.772;2022-10-01T09:07:35;15.80;99.90
5508;DHT22;2776;51.046;6.772;2022-10-01T09:10:17;15.80;99.90
5508;DHT22;2776;51.046;6.772;2022-10-01T09:12:50;15.80;99.90
5508;DHT22;2776;51.046;6.772;2022-10-01T09:15:27;15.80;99.90
5508;DHT22;2776;51.046;6.772;2022-10-01T09:18:10;15.80;99.90
5508;DHT22;2776;51.046;6.772;2022-10-01T09:20:44;15.80;99.90
5508;DHT22;2776;51.046;6.772;2022-10-01T09:23:18;15.80;99.90
5508;DHT22;2776;51.046;6.772;2022-10-01T09:25:49;15.80;99.90
5508;DHT22;2776;51.046;6.772;2022-10-01T09:28:19;15.80;99.90
5508;DHT22;2776;51.046;6.772;2022-10-01T09:30:50;15.70;99.90
5508;DHT22;2776;51.046;6.772;2022-10-01T09:33:22;15.70;99.90
5508;DHT22;2776;51.046;6.772;2022-10-01T09:35:55;15.60;99.90
5508;DHT22;2776;51.046;6.772;2022-10-01T09:38:30;15.50;99.90
5508;DHT22;2776;51.046;6.772;2022-10-01T09:40:59;15.50;99.90
5508;DHT22;2776;51.046;6.772;2022-10-01T09:43:28;15.50;99.90
5508;DHT22;2776;51.046;6.772;2022-10-01T09:45:55;15.70;99.90
5508;DHT22;2776;51.046;6.772;2022-10-01T09:48:29;15.80;99.90
5508;DHT22;2776;51.046;6.772;2022-10-01T09:51:02;16.00;99.90
5508;DHT22;2776;51.046;6.772;2022-10-01T09:53:34;16.20;99.90
5508;DHT22;2776;51.046;6.772;2022-10-01T09:56:07;16.20;99.90
5508;DHT22;2776;51.046;6.772;2022-10-01T09:58:36;16.20;99.90
5508;DHT22;2776;51.046;6.772;2022-10-01T10:01:14;16.20;99.90
5508;DHT22;2776;51.046;6.772;2022-10-01T10:03:53;16.10;99.90
5508;DHT22;2776;51.046;6.772;2022-10-01T10:06:22;16.10;99.90
5508;DHT22;2776;51.046;6.772;2022-10-01T10:08:52;16.00;99.90
5508;DHT22;2776;51.046;6.772;2022-10-01T10:11:21;16.00;99.90
5508;DHT22;2776;51.046;6.772;2022-10-01T10:13:50;16.10;99.90
5508;DHT22;2776;51.046;6.772;2022-10-01T10:16:19;16.30;99.90
5508;DHT22;2776;51.046;6.772;2022-10-01T10:18:54;16.40;99.90
5508;DHT22;2776;51.046;6.772;2022-10-01T10:21:25;16.50;99.90
5508;DHT22;2776;51.046;6.772;2022-10-01T10:23:54;16.50;99.90
5508;DHT22;2776;51.046;6.772;2022-10-01T10:26:26;16.60;99.90
5508;DHT22;2776;51.046;6.772;2022-10-01T10:28:54;16.70;99.90
5508;DHT22;2776;51.046;6.772;2022-10-01T10:31:23;16.80;99.90
5508;DHT22;2776;51.046;6.772;2022-10-01T10:33:54;16.80;99.90
5508;DHT22;2776;51.046;6.772;2022-10-01T10:36:26;16.70;99.90
5508;DHT22;2776;51.046;6.772;2022-10-01T10:38:55;16.80;99.90
5508;DHT22;2776;51.046;6.772;2022-10-01T10:41:25;16.70;99.90
5508;DHT22;2776;51.046;6.772;2022-10-01T10:43:54;16.70;99.90
5508;DHT22;2776;51.046;6.772;2022-10-01T10:46:25;16.70;99.90
5508;DHT22;2776;51.046;6.772;2022-10-01T10:49:02;16.70;99.90
5508;DHT22;2776;51.046;6.772;2022-10-01T10:51:42;16.80;99.90
5508;DHT22;2776;51.046;6.772;2022-10-01T10:54:17;16.80;99.90
5508;DHT22;2776;51.046;6.772;2022-10-01T10:56:56;17.00;99.90
5508;DHT22;2776;51.046;6.772;2022-10-01T10:59:24;17.00;99.90
5508;DHT22;2776;51.046;6.772;2022-10-01T11:01:51;16.90;99.90
5508;DHT22;2776;51.046;6.772;2022-10-01T11:04:27;16.80;99.90
5508;DHT22;2776;51.046;6.772;2022-10-01T11:06:56;16.80;99.90
5508;DHT22;2776;51.046;6.772;2022-10-01T11:09:31;16.80;99.90
5508;DHT22;2776;51.046;6.772;2022-10-01T11:12:08;16.80;99.90
5508;DHT22;2776;51.046;6.772;2022-10-01T11:14:48;17.00;99.90
5508;DHT22;2776;51.046;6.772;2022-10-01T11:17:29;17.20;99.90
5508;DHT22;2776;51.046;6.772;2022-10-01T11:20:19;17.50;99.90
5508;DHT22;2776;51.046;6.772;2022-10-01T11:22:56;17.70;99.90
5508;DHT22;2776;51.046;6.772;2022-10-01T11:25:31;17.90;99.90
5508;DHT22;2776;51.046;6.772;2022-10-01T11:28:15;17.90;99.90
5508;DHT22;2776;51.046;6.772;2022-10-01T11:30:51;17.90;99.90
5508;DHT22;2776;51.046;6.772;2022-10-01T11:33:29;18.00;99.90
5508;DHT22;2776;51.046;6.772;2022-10-01T11:36:02;18.00;99.90
5508;DHT22;2776;51.046;6.772;2022-10-01T11:38:42;18.10;99.90
5508;DHT22;2776;51.046;6.772;2022-10-01T11:41:24;18.20;99.90
5508;DHT22;2776;51.046;6.772;2022-10-01T11:43:56;17.80;99.90
5508;DHT22;2776;51.046;6.772;2022-10-01T11:46:41;17.60;99.90
5508;DHT22;2776;51.046;6.772;2022-10-01T11:52:12;17.50;99.90
5508;DHT22;2776;51.046;6.772;2022-10-01T11:54:54;17.40;99.90
5508;DHT22;2776;51.046;6.772;2022-10-01T11:57:22;17.30;99.90
5508;DHT22;2776;51.046;6.772;2022-10-01T12:00:08;17.10;99.90
5508;DHT22;2776;51.046;6.772;2022-10-01T12:02:44;17.00;99.90
5508;DHT22;2776;51.046;6.772;2022-10-01T12:05:16;17.00;99.90
5508;DHT22;2776;51.046;6.772;2022-10-01T12:07:48;17.00;99.90
5508;DHT22;2776;51.046;6.772;2022-10-01T12:10:28;17.00;99.90
5508;DHT22;2776;51.046;6.772;2022-10-01T12:13:01;16.90;99.90
5508;DHT22;2776;51.046;6.772;2022-10-01T12:15:35;16.80;99.90
5508;DHT22;2776;51.046;6.772;2022-10-01T12:18:08;16.90;99.90
5508;DHT22;2776;51.046;6.772;2022-10-01T12:20:40;16.80;99.90
5508;DHT22;2776;51.046;6.772;2022-10-01T12:23:13;16.50;99.90
5508;DHT22;2776;51.046;6.772;2022-10-01T12:25:46;16.50;99.90
5508;DHT22;2776;51.046;6.772;2022-10-01T12:28:18;16.50;99.90
5508;DHT22;2776;51.046;6.772;2022-10-01T12:30:53;16.50;99.90
5508;DHT22;2776;51.046;6.772;2022-10-01T12:33:56;16.70;99.90
5508;DHT22;2776;51.046;6.772;2022-10-01T12:36:37;16.80;99.90
5508;DHT22;2776;51.046;6.772;2022-10-01T12:39:20;16.80;99.90
5508;DHT22;2776;51.046;6.772;2022-10-01T12:42:00;16.80;99.90
5508;DHT22;2776;51.046;6.772;2022-10-01T12:44:39;16.80;99.90
5508;DHT22;2776;51.046;6.772;2022-10-01T12:47:26;17.00;99.90
5508;DHT22;2776;51.046;6.772;2022-10-01T12:50:10;17.10;99.90
5508;DHT22;2776;51.046;6.772;2022-10-01T12:52:46;17.20;99.90
5508;DHT22;2776;51.046;6.772;2022-10-01T12:55:32;17.30;99.90
5508;DHT22;2776;51.046;6.772;2022-10-01T12:58:14;17.40;99.90
5508;DHT22;2776;51.046;6.772;2022-10-01T13:00:49;17.40;99.90
5508;DHT22;2776;51.046;6.772;2022-10-01T13:03:42;17.50;99.90
5508;DHT22;2776;51.046;6.772;2022-10-01T13:06:25;17.60;99.90
5508;DHT22;2776;51.046;6.772;2022-10-01T13:09:05;17.70;99.90
5508;DHT22;2776;51.046;6.772;2022-10-01T13:11:54;17.80;99.90
5508;DHT22;2776;51.046;6.772;2022-10-01T13:14:23;17.80;99.90
5508;DHT22;2776;51.046;6.772;2022-10-01T13:16:56;17.90;99.90
5508;DHT22;2776;51.046;6.772;2022-10-01T13:19:29;17.90;99.90
5508;DHT22;2776;51.046;6.772;2022-10-01T13:22:06;18.00;99.90
5508;DHT22;2776;51.046;6.772;2022-10-01T13:24:38;18.00;99.90
5508;DHT22;2776;51.046;6.772;2022-10-01T13:27:12;18.10;99.90
5508;DHT22;2776;51.046;6.772;2022-10-01T13:29:49;18.00;99.90
5508;DHT22;2776;51.046;6.772;2022-10-01T13:32:28;18.10;99.90
5508;DHT22;2776;51.046;6.772;2022-10-01T13:34:57;18.10;99.90
5508;DHT22;2776;51.046;6.772;2022-10-01T13:37:32;18.10;99.90
5508;DHT22;2776;51.046;6.772;2022-10-01T13:40:00;18.20;99.90
5508;DHT22;2776;51.046;6.772;2022-10-01T13:42:32;18.30;99.90
5508;DHT22;2776;51.046;6.772;2022-10-01T13:45:05;18.30;99.90
5508;DHT22;2776;51.046;6.772;2022-10-01T13:47:34;18.30;99.90
5508;DHT22;2776;51.046;6.772;2022-10-01T13:50:05;18.20;99.90
5508;DHT22;2776;51.046;6.772;2022-10-01T13:52:33;18.30;99.90
5508;DHT22;2776;51.046;6.772;2022-10-01T13:55:00;18.30;99.90
5508;DHT22;2776;51.046;6.772;2022-10-01T13:57:33;18.20;99.90
5508;DHT22;2776;51.046;6.772;2022-10-01T14:00:19;18.20;99.90
5508;DHT22;2776;51.046;6.772;2022-10-01T14:02:59;18.20;99.90
5508;DHT22;2776;51.046;6.772;2022-10-01T14:05:32;18.20;99.90
5508;DHT22;2776;51.046;6.772;2022-10-01T14:08:05;18.20;99.90
5508;DHT22;2776;51.046;6.772;2022-10-01T14:10:38;18.20;99.90
5508;DHT22;2776;51.046;6.772;2022-10-01T14:13:29;18.20;99.90
5508;DHT22;2776;51.046;6.772;2022-10-01T14:16:15;18.20;99.90
5508;DHT22;2776;51.046;6.772;2022-10-01T14:18:45;18.30;99.90
5508;DHT22;2776;51.046;6.772;2022-10-01T14:21:27;18.30;99.90
5508;DHT22;2776;51.046;6.772;2022-10-01T14:24:00;18.20;99.90
5508;DHT22;2776;51.046;6.772;2022-10-01T14:26:34;18.20;99.90
5508;DHT22;2776;51.046;6.772;2022-10-01T14:29:12;18.20;99.90
5508;DHT22;2776;51.046;6.772;2022-10-01T14:31:49;18.20;99.90
5508;DHT22;2776;51.046;6.772;2022-10-01T14:34:35;18.20;99.90
5508;DHT22;2776;51.046;6.772;2022-10-01T14:37:06;18.10;99.90
5508;DHT22;2776;51.046;6.772;2022-10-01T14:39:36;18.10;99.90
5508;DHT22;2776;51.046;6.772;2022-10-01T14:42:07;18.10;99.90
5508;DHT22;2776;51.046;6.772;2022-10-01T14:44:38;18.20;99.90
5508;DHT22;2776;51.046;6.772;2022-10-01T14:47:13;18.20;99.90
5508;DHT22;2776;51.046;6.772;2022-10-01T14:49:42;18.20;99.90
5508;DHT22;2776;51.046;6.772;2022-10-01T14:52:18;18.20;99.90
5508;DHT22;2776;51.046;6.772;2022-10-01T14:54:48;18.20;99.90
5508;DHT22;2776;51.046;6.772;2022-10-01T14:57:24;18.30;99.90
5508;DHT22;2776;51.046;6.772;2022-10-01T14:59:54;18.30;99.90
5508;DHT22;2776;51.046;6.772;2022-10-01T15:02:23;18.30;99.90
5508;DHT22;2776;51.046;6.772;2022-10-01T15:04:52;18.30;99.90
5508;DHT22;2776;51.046;6.772;2022-10-01T15:07:18;18.50;99.90
5508;DHT22;2776;51.046;6.772;2022-10-01T15:09:46;18.60;99.90
5508;DHT22;2776;51.046;6.772;2022-10-01T15:12:15;18.70;99.90
5508;DHT22;2776;51.046;6.772;2022-10-01T15:14:42;18.70;99.90
5508;DHT22;2776;51.046;6.772;2022-10-01T15:17:22;18.80;99.90
5508;DHT22;2776;51.046;6.772;2022-10-01T15:19:52;18.80;99.90
5508;DHT22;2776;51.046;6.772;2022-10-01T15:22:23;18.80;99.90
5508;DHT22;2776;51.046;6.772;2022-10-01T15:24:52;18.80;99.90
5508;DHT22;2776;51.046;6.772;2022-10-01T15:27:21;18.80;99.90
5508;DHT22;2776;51.046;6.772;2022-10-01T15:29:50;18.90;99.90
5508;DHT22;2776;51.046;6.772;2022-10-01T15:32:21;18.90;99.90
5508;DHT22;2776;51.046;6.772;2022-10-01T15:34:51;18.80;99.90
5508;DHT22;2776;51.046;6.772;2022-10-01T15:37:22;18.80;99.90
5508;DHT22;2776;51.046;6.772;2022-10-01T15:39:51;18.80;99.90
5508;DHT22;2776;51.046;6.772;2022-10-01T15:42:21;18.80;99.90
5508;DHT22;2776;51.046;6.772;2022-10-01T15:45:10;18.80;99.90
5508;DHT22;2776;51.046;6.772;2022-10-01T15:47:39;18.70;99.90
5508;DHT22;2776;51.046;6.772;2022-10-01T15:50:19;18.50;99.90
5508;DHT22;2776;51.046;6.772;2022-10-01T15:52:49;18.50;99.90
5508;DHT22;2776;51.046;6.772;2022-10-01T15:55:21;18.50;99.90
5508;DHT22;2776;51.046;6.772;2022-10-01T15:57:51;18.40;99.90
5508;DHT22;2776;51.046;6.772;2022-10-01T16:00:21;18.40;99.90
5508;DHT22;2776;51.046;6.772;2022-10-01T16:02:50;18.40;99.90
5508;DHT22;2776;51.046;6.772;2022-10-01T16:05:20;18.40;99.90
5508;DHT22;2776;51.046;6.772;2022-10-01T16:07:51;18.30;99.90
5508;DHT22;2776;51.046;6.772;2022-10-01T16:10:29;18.30;99.90
5508;DHT22;2776;51.046;6.772;2022-10-01T16:12:57;18.20;99.90
5508;DHT22;2776;51.046;6.772;2022-10-01T16:15:26;18.20;99.90
5508;DHT22;2776;51.046;6.772;2022-10-01T16:17:55;18.00;99.90
5508;DHT22;2776;51.046;6.772;2022-10-01T16:20:35;18.00;99.90
5508;DHT22;2776;51.046;6.772;2022-10-01T16:23:24;17.90;99.90
5508;DHT22;2776;51.046;6.772;2022-10-01T16:25:51;17.80;99.90
5508;DHT22;2776;51.046;6.772;2022-10-01T16:28:26;17.70;99.90
5508;DHT22;2776;51.046;6.772;2022-10-01T16:30:53;17.60;99.90
5508;DHT22;2776;51.046;6.772;2022-10-01T16:33:21;17.60;99.90